sensor_id;sensor_type;location;lat;lon;timestamp;P1;durP1;ratioP1;P2;durP2;ratioP2
34102;SDS011;20381;54.498;18.206;2023-08-12T00:01:10;3.70;;;1.10;;
34102;SDS011;20381;54.498;18.206;2023-08-12T00:03:38;3.40;;;1.60;;
34102;SDS011;20381;54.498;18.206;2023-08-12T00:06:15;3.60;;;1.00;;
34102;SDS011;20381;54.498;18.206;2023-08-12T00:08:49;2.10;;;1.30;;
34102;SDS011;20381;54.498;18.206;2023-08-12T00:11:28;4.90;;;2.10;;
34102;SDS011;20381;54.498;18.206;2023-08-12T00:14:00;2.30;;;1.20;;
34102;SDS011;20381;54.498;18.206;2023-08-12T00:16:29;2.90;;;1.10;;
34102;SDS011;20381;54.498;18.206;2023-08-12T00:18:58;4.10;;;1.90;;
34102;SDS011;20381;54.498;18.206;2023-08-12T00:21:27;3.60;;;1.20;;
34102;SDS011;20381;54.498;18.206;2023-08-12T00:23:56;7.20;;;1.90;;
34102;SDS011;20381;54.498;18.206;2023-08-12T00:26:27;6.00;;;1.40;;
34102;SDS011;20381;54.498;18.206;2023-08-12T00:28:56;6.00;;;1.40;;
34102;SDS011;20381;54.498;18.206;2023-08-12T00:31:25;6.10;;;1.00;;
34102;SDS011;20381;54.498;18.206;2023-08-12T00:34:00;5.10;;;1.40;;
34102;SDS011;20381;54.498;18.206;2023-08-12T00:36:29;3.90;;;1.60;;
34102;SDS011;20381;54.498;18.206;2023-08-12T00:38:58;3.10;;;1.30;;
34102;SDS011;20381;54.498;18.206;2023-08-12T00:41:47;1.70;;;0.80;;
34102;SDS011;20381;54.498;18.206;2023-08-12T00:44:15;2.00;;;0.80;;
34102;SDS011;20381;54.498;18.206;2023-08-12T00:46:44;2.90;;;1.30;;
34102;SDS011;20381;54.498;18.206;2023-08-12T00:49:18;4.40;;;1.40;;
34102;SDS011;20381;54.498;18.206;2023-08-12T00:51:59;3.10;;;1.20;;
34102;SDS011;20381;54.498;18.206;2023-08-12T00:54:29;3.30;;;1.00;;
34102;SDS011;20381;54.498;18.206;2023-08-12T00:56:58;1.80;;;0.90;;
34102;SDS011;20381;54.498;18.206;2023-08-12T00:59:48;2.80;;;0.90;;
34102;SDS011;20381;54.498;18.206;2023-08-12T01:05:27;1.90;;;1.00;;
34102;SDS011;20381;54.498;18.206;2023-08-12T01:08:00;4.50;;;1.20;;
34102;SDS011;20381;54.498;18.206;2023-08-12T01:10:33;1.90;;;1.20;;
34102;SDS011;20381;54.498;18.206;2023-08-12T01:13:29;2.40;;;1.00;;
34102;SDS011;20381;54.498;18.206;2023-08-12T01:16:14;2.10;;;1.00;;
34102;SDS011;20381;54.498;18.206;2023-08-12T01:18:47;3.30;;;1.10;;
34102;SDS011;20381;54.498;18.206;2023-08-12T01:21:17;2.20;;;1.00;;
34102;SDS011;20381;54.498;18.206;2023-08-12T01:23:53;1.90;;;1.20;;
34102;SDS011;20381;54.498;18.206;2023-08-12T01:26:21;2.80;;;1.10;;
34102;SDS011;20381;54.498;18.206;2023-08-12T01:29:00;7.10;;;1.30;;
34102;SDS011;20381;54.498;18.206;2023-08-12T01:31:40;3.00;;;1.10;;
34102;SDS011;20381;54.498;18.206;2023-08-12T01:37:08;2.70;;;1.20;;
34102;SDS011;20381;54.498;18.206;2023-08-12T01:39:41;2.20;;;0.80;;
34102;SDS011;20381;54.498;18.206;2023-08-12T01:42:11;1.50;;;0.80;;
34102;SDS011;20381;54.498;18.206;2023-08-12T01:44:44;4.50;;;1.00;;
34102;SDS011;20381;54.498;18.206;2023-08-12T01:47:13;1.80;;;1.00;;
34102;SDS011;20381;54.498;18.206;2023-08-12T01:49:48;2.90;;;0.90;;
34102;SDS011;20381;54.498;18.206;2023-08-12T01:52:17;5.10;;;1.20;;
34102;SDS011;20381;54.498;18.206;2023-08-12T01:54:46;2.90;;;0.80;;
34102;SDS011;20381;54.498;18.206;2023-08-12T01:57:15;2.50;;;1.10;;
34102;SDS011;20381;54.498;18.206;2023-08-12T01:59:44;4.10;;;1.30;;
34102;SDS011;20381;54.498;18.206;2023-08-12T02:02:15;3.70;;;1.30;;
34102;SDS011;20381;54.498;18.206;2023-08-12T02:04:47;2.70;;;0.90;;
34102;SDS011;20381;54.498;18.206;2023-08-12T02:07:43;4.50;;;1.00;;
34102;SDS011;20381;54.498;18.206;2023-08-12T02:10:14;1.60;;;0.80;;
34102;SDS011;20381;54.498;18.206;2023-08-12T02:12:48;1.60;;;1.10;;
34102;SDS011;20381;54.498;18.206;2023-08-12T02:15:17;1.90;;;1.40;;
34102;SDS011;20381;54.498;18.206;2023-08-12T02:17:46;1.90;;;0.90;;
34102;SDS011;20381;54.498;18.206;2023-08-12T02:20:18;3.70;;;1.20;;
34102;SDS011;20381;54.498;18.206;2023-08-12T02:22:46;2.40;;;1.00;;
34102;SDS011;20381;54.498;18.206;2023-08-12T02:25:20;3.50;;;0.90;;
34102;SDS011;20381;54.498;18.206;2023-08-12T02:27:49;2.90;;;1.20;;
34102;SDS011;20381;54.498;18.206;2023-08-12T02:30:17;2.60;;;1.00;;
34102;SDS011;20381;54.498;18.206;2023-08-12T02:32:55;2.30;;;1.10;;
34102;SDS011;20381;54.498;18.206;2023-08-12T02:35:24;2.90;;;1.00;;
34102;SDS011;20381;54.498;18.206;2023-08-12T02:37:55;4.10;;;1.40;;
34102;SDS011;20381;54.498;18.206;2023-08-12T02:40:24;1.50;;;0.80;;
34102;SDS011;20381;54.498;18.206;2023-08-12T02:42:53;4.70;;;1.10;;
34102;SDS011;20381;54.498;18.206;2023-08-12T02:45:22;1.80;;;0.90;;
34102;SDS011;20381;54.498;18.206;2023-08-12T02:48:12;1.90;;;1.10;;
34102;SDS011;20381;54.498;18.206;2023-08-12T02:50:40;2.30;;;0.90;;
34102;SDS011;20381;54.498;18.206;2023-08-12T02:53:09;1.80;;;0.90;;
34102;SDS011;20381;54.498;18.206;2023-08-12T02:55:44;2.80;;;0.90;;
34102;SDS011;20381;54.498;18.206;2023-08-12T02:58:13;2.30;;;0.90;;
34102;SDS011;20381;54.498;18.206;2023-08-12T03:00:55;2.60;;;1.20;;
34102;SDS011;20381;54.498;18.206;2023-08-12T03:03:25;1.70;;;0.70;;
34102;SDS011;20381;54.498;18.206;2023-08-12T03:06:01;2.90;;;0.80;;
34102;SDS011;20381;54.498;18.206;2023-08-12T03:08:48;1.70;;;0.80;;
34102;SDS011;20381;54.498;18.206;2023-08-12T03:14:03;1.40;;;0.60;;
34102;SDS011;20381;54.498;18.206;2023-08-12T03:16:32;2.50;;;0.90;;
34102;SDS011;20381;54.498;18.206;2023-08-12T03:19:07;2.10;;;1.00;;
34102;SDS011;20381;54.498;18.206;2023-08-12T03:21:36;1.30;;;0.80;;
34102;SDS011;20381;54.498;18.206;2023-08-12T03:24:05;1.90;;;0.70;;
34102;SDS011;20381;54.498;18.206;2023-08-12T03:26:41;5.80;;;1.40;;
34102;SDS011;20381;54.498;18.206;2023-08-12T03:29:12;5.00;;;1.30;;
34102;SDS011;20381;54.498;18.206;2023-08-12T03:31:44;3.80;;;0.70;;
34102;SDS011;20381;54.498;18.206;2023-08-12T03:34:18;1.90;;;1.10;;
34102;SDS011;20381;54.498;18.206;2023-08-12T03:36:58;2.20;;;0.80;;
34102;SDS011;20381;54.498;18.206;2023-08-12T03:39:27;2.70;;;1.00;;
34102;SDS011;20381;54.498;18.206;2023-08-12T03:41:58;4.40;;;0.80;;
34102;SDS011;20381;54.498;18.206;2023-08-12T03:44:27;1.80;;;0.80;;
34102;SDS011;20381;54.498;18.206;2023-08-12T03:46:58;1.20;;;0.60;;
34102;SDS011;20381;54.498;18.206;2023-08-12T03:49:27;2.30;;;0.80;;
34102;SDS011;20381;54.498;18.206;2023-08-12T03:51:56;2.50;;;1.50;;
34102;SDS011;20381;54.498;18.206;2023-08-12T03:54:25;1.40;;;0.60;;
34102;SDS011;20381;54.498;18.206;2023-08-12T03:56:54;4.00;;;1.20;;
34102;SDS011;20381;54.498;18.206;2023-08-12T03:59:23;1.70;;;1.10;;
34102;SDS011;20381;54.498;18.206;2023-08-12T04:01:52;1.10;;;0.70;;
34102;SDS011;20381;54.498;18.206;2023-08-12T04:04:21;3.20;;;0.60;;
34102;SDS011;20381;54.498;18.206;2023-08-12T04:06:49;4.70;;;1.10;;
34102;SDS011;20381;54.498;18.206;2023-08-12T04:09:21;1.70;;;0.90;;
34102;SDS011;20381;54.498;18.206;2023-08-12T04:11:49;3.80;;;0.80;;
34102;SDS011;20381;54.498;18.206;2023-08-12T04:14:18;1.30;;;0.60;;
34102;SDS011;20381;54.498;18.206;2023-08-12T04:16:53;1.30;;;0.80;;
34102;SDS011;20381;54.498;18.206;2023-08-12T04:19:23;1.80;;;0.80;;
34102;SDS011;20381;54.498;18.206;2023-08-12T04:21:56;2.20;;;0.90;;
34102;SDS011;20381;54.498;18.206;2023-08-12T04:24:25;1.30;;;0.80;;
34102;SDS011;20381;54.498;18.206;2023-08-12T04:26:53;1.70;;;1.10;;
34102;SDS011;20381;54.498;18.206;2023-08-12T04:29:22;3.50;;;0.90;;
34102;SDS011;20381;54.498;18.206;2023-08-12T04:31:56;1.90;;;0.80;;
34102;SDS011;20381;54.498;18.206;2023-08-12T04:34:26;3.00;;;1.00;;
34102;SDS011;20381;54.498;18.206;2023-08-12T04:37:13;2.00;;;1.20;;
34102;SDS011;20381;54.498;18.206;2023-08-12T04:39:44;3.10;;;0.90;;
34102;SDS011;20381;54.498;18.206;2023-08-12T04:42:13;3.00;;;1.20;;
34102;SDS011;20381;54.498;18.206;2023-08-12T04:44:42;2.50;;;1.20;;
34102;SDS011;20381;54.498;18.206;2023-08-12T04:47:14;1.60;;;0.90;;
34102;SDS011;20381;54.498;18.206;2023-08-12T04:49:43;4.20;;;1.40;;
34102;SDS011;20381;54.498;18.206;2023-08-12T04:52:15;1.90;;;1.00;;
34102;SDS011;20381;54.498;18.206;2023-08-12T04:54:47;6.20;;;1.10;;
34102;SDS011;20381;54.498;18.206;2023-08-12T04:57:15;3.10;;;1.20;;
34102;SDS011;20381;54.498;18.206;2023-08-12T04:59:47;3.00;;;1.30;;
34102;SDS011;20381;54.498;18.206;2023-08-12T05:02:16;4.00;;;1.30;;
34102;SDS011;20381;54.498;18.206;2023-08-12T05:04:51;5.30;;;1.10;;
34102;SDS011;20381;54.498;18.206;2023-08-12T05:07:20;2.10;;;1.40;;
34102;SDS011;20381;54.498;18.206;2023-08-12T05:09:48;4.10;;;1.20;;
34102;SDS011;20381;54.498;18.206;2023-08-12T05:12:17;3.50;;;1.20;;
34102;SDS011;20381;54.498;18.206;2023-08-12T05:14:49;2.70;;;1.30;;
34102;SDS011;20381;54.498;18.206;2023-08-12T05:17:18;2.40;;;1.60;;
34102;SDS011;20381;54.498;18.206;2023-08-12T05:19:50;5.90;;;1.20;;
34102;SDS011;20381;54.498;18.206;2023-08-12T05:22:19;1.80;;;0.60;;
34102;SDS011;20381;54.498;18.206;2023-08-12T05:24:48;3.50;;;1.10;;
34102;SDS011;20381;54.498;18.206;2023-08-12T05:27:17;2.00;;;0.90;;
34102;SDS011;20381;54.498;18.206;2023-08-12T05:29:46;4.20;;;0.80;;
34102;SDS011;20381;54.498;18.206;2023-08-12T05:32:44;1.60;;;0.70;;
34102;SDS011;20381;54.498;18.206;2023-08-12T05:35:13;2.40;;;0.80;;
34102;SDS011;20381;54.498;18.206;2023-08-12T05:37:42;1.90;;;0.50;;
34102;SDS011;20381;54.498;18.206;2023-08-12T05:40:29;3.70;;;0.90;;
34102;SDS011;20381;54.498;18.206;2023-08-12T05:42:58;1.30;;;0.90;;
34102;SDS011;20381;54.498;18.206;2023-08-12T05:45:27;1.60;;;0.90;;
34102;SDS011;20381;54.498;18.206;2023-08-12T05:47:56;1.90;;;1.00;;
34102;SDS011;20381;54.498;18.206;2023-08-12T05:50:25;2.40;;;0.70;;
34102;SDS011;20381;54.498;18.206;2023-08-12T05:52:53;2.50;;;0.80;;
34102;SDS011;20381;54.498;18.206;2023-08-12T05:55:43;1.70;;;0.60;;
34102;SDS011;20381;54.498;18.206;2023-08-12T05:59:07;1.20;;;0.50;;
34102;SDS011;20381;54.498;18.206;2023-08-12T06:01:42;1.50;;;0.80;;
34102;SDS011;20381;54.498;18.206;2023-08-12T06:04:15;2.00;;;0.90;;
34102;SDS011;20381;54.498;18.206;2023-08-12T06:06:43;5.10;;;0.90;;
34102;SDS011;20381;54.498;18.206;2023-08-12T06:09:12;2.70;;;0.90;;
34102;SDS011;20381;54.498;18.206;2023-08-12T06:11:44;2.20;;;0.60;;
34102;SDS011;20381;54.498;18.206;2023-08-12T06:14:16;1.80;;;0.70;;
34102;SDS011;20381;54.498;18.206;2023-08-12T06:16:45;1.70;;;0.70;;
34102;SDS011;20381;54.498;18.206;2023-08-12T06:19:19;1.90;;;0.90;;
34102;SDS011;20381;54.498;18.206;2023-08-12T06:21:51;1.30;;;0.80;;
34102;SDS011;20381;54.498;18.206;2023-08-12T06:24:20;2.10;;;0.80;;
34102;SDS011;20381;54.498;18.206;2023-08-12T06:26:49;5.30;;;1.40;;
34102;SDS011;20381;54.498;18.206;2023-08-12T06:29:17;1.50;;;0.60;;
34102;SDS011;20381;54.498;18.206;2023-08-12T06:31:46;1.90;;;1.00;;
34102;SDS011;20381;54.498;18.206;2023-08-12T06:34:16;2.50;;;0.70;;
34102;SDS011;20381;54.498;18.206;2023-08-12T06:36:44;2.30;;;0.90;;
34102;SDS011;20381;54.498;18.206;2023-08-12T06:39:14;1.70;;;1.20;;
34102;SDS011;20381;54.498;18.206;2023-08-12T06:41:42;1.40;;;0.90;;
34102;SDS011;20381;54.498;18.206;2023-08-12T06:44:15;2.20;;;1.20;;
34102;SDS011;20381;54.498;18.206;2023-08-12T06:46:43;4.90;;;0.90;;
34102;SDS011;20381;54.498;18.206;2023-08-12T06:49:13;1.70;;;0.80;;
34102;SDS011;20381;54.498;18.206;2023-08-12T06:51:42;2.40;;;1.10;;
34102;SDS011;20381;54.498;18.206;2023-08-12T06:54:11;1.10;;;0.50;;
34102;SDS011;20381;54.498;18.206;2023-08-12T06:56:41;2.90;;;1.10;;
34102;SDS011;20381;54.498;18.206;2023-08-12T06:59:11;2.00;;;0.80;;
34102;SDS011;20381;54.498;18.206;2023-08-12T07:01:39;1.20;;;0.60;;
34102;SDS011;20381;54.498;18.206;2023-08-12T07:04:10;1.60;;;0.80;;
34102;SDS011;20381;54.498;18.206;2023-08-12T07:06:41;5.00;;;1.10;;
34102;SDS011;20381;54.498;18.206;2023-08-12T07:09:12;2.60;;;1.00;;
34102;SDS011;20381;54.498;18.206;2023-08-12T07:11:41;2.90;;;0.70;;
34102;SDS011;20381;54.498;18.206;2023-08-12T07:14:10;5.50;;;1.10;;
34102;SDS011;20381;54.498;18.206;2023-08-12T07:16:42;1.80;;;0.70;;
34102;SDS011;20381;54.498;18.206;2023-08-12T07:19:12;4.40;;;0.70;;
34102;SDS011;20381;54.498;18.206;2023-08-12T07:21:50;1.10;;;0.70;;
34102;SDS011;20381;54.498;18.206;2023-08-12T07:24:20;1.50;;;0.70;;
34102;SDS011;20381;54.498;18.206;2023-08-12T07:26:49;1.20;;;0.50;;
34102;SDS011;20381;54.498;18.206;2023-08-12T07:29:18;1.00;;;0.50;;
34102;SDS011;20381;54.498;18.206;2023-08-12T07:31:47;1.50;;;1.00;;
34102;SDS011;20381;54.498;18.206;2023-08-12T07:34:17;3.10;;;1.10;;
34102;SDS011;20381;54.498;18.206;2023-08-12T07:36:47;2.30;;;0.70;;
34102;SDS011;20381;54.498;18.206;2023-08-12T07:39:18;2.20;;;1.10;;
34102;SDS011;20381;54.498;18.206;2023-08-12T07:41:48;2.60;;;1.00;;
34102;SDS011;20381;54.498;18.206;2023-08-12T07:44:18;2.50;;;1.10;;
34102;SDS011;20381;54.498;18.206;2023-08-12T07:46:47;2.10;;;1.00;;
34102;SDS011;20381;54.498;18.206;2023-08-12T07:49:16;1.30;;;0.70;;
34102;SDS011;20381;54.498;18.206;2023-08-12T07:51:45;2.10;;;0.80;;
34102;SDS011;20381;54.498;18.206;2023-08-12T07:54:14;2.90;;;1.30;;
34102;SDS011;20381;54.498;18.206;2023-08-12T07:56:44;2.10;;;0.90;;
34102;SDS011;20381;54.498;18.206;2023-08-12T08:02:17;1.10;;;0.70;;
34102;SDS011;20381;54.498;18.206;2023-08-12T08:04:47;1.80;;;0.70;;
34102;SDS011;20381;54.498;18.206;2023-08-12T08:07:20;1.70;;;0.70;;
34102;SDS011;20381;54.498;18.206;2023-08-12T08:09:53;2.00;;;0.70;;
34102;SDS011;20381;54.498;18.206;2023-08-12T08:12:22;1.70;;;0.60;;
34102;SDS011;20381;54.498;18.206;2023-08-12T08:14:51;1.40;;;0.50;;
34102;SDS011;20381;54.498;18.206;2023-08-12T08:17:20;1.40;;;0.80;;
34102;SDS011;20381;54.498;18.206;2023-08-12T08:19:49;1.10;;;0.60;;
34102;SDS011;20381;54.498;18.206;2023-08-12T08:22:18;2.70;;;0.90;;
34102;SDS011;20381;54.498;18.206;2023-08-12T08:24:47;1.10;;;0.90;;
34102;SDS011;20381;54.498;18.206;2023-08-12T08:27:16;1.30;;;0.80;;
34102;SDS011;20381;54.498;18.206;2023-08-12T08:29:45;1.20;;;0.70;;
34102;SDS011;20381;54.498;18.206;2023-08-12T08:32:15;2.00;;;0.80;;
34102;SDS011;20381;54.498;18.206;2023-08-12T08:34:45;28.00;;;1.70;;
34102;SDS011;20381;54.498;18.206;2023-08-12T08:37:14;3.30;;;0.80;;
34102;SDS011;20381;54.498;18.206;2023-08-12T08:39:44;1.10;;;0.80;;
34102;SDS011;20381;54.498;18.206;2023-08-12T08:42:13;2.20;;;0.80;;
34102;SDS011;20381;54.498;18.206;2023-08-12T08:44:48;2.30;;;0.70;;
34102;SDS011;20381;54.498;18.206;2023-08-12T08:47:25;2.20;;;0.70;;
34102;SDS011;20381;54.498;18.206;2023-08-12T08:49:56;2.00;;;0.70;;
34102;SDS011;20381;54.498;18.206;2023-08-12T08:52:25;1.80;;;0.80;;
34102;SDS011;20381;54.498;18.206;2023-08-12T08:54:55;0.90;;;0.50;;
34102;SDS011;20381;54.498;18.206;2023-08-12T08:57:33;1.50;;;0.90;;
34102;SDS011;20381;54.498;18.206;2023-08-12T09:00:16;2.00;;;0.60;;
34102;SDS011;20381;54.498;18.206;2023-08-12T09:02:48;3.00;;;1.00;;
34102;SDS011;20381;54.498;18.206;2023-08-12T09:05:21;3.30;;;1.10;;
34102;SDS011;20381;54.498;18.206;2023-08-12T09:08:11;2.00;;;0.90;;
34102;SDS011;20381;54.498;18.206;2023-08-12T09:10:42;1.00;;;0.70;;
34102;SDS011;20381;54.498;18.206;2023-08-12T09:13:12;1.60;;;1.10;;
34102;SDS011;20381;54.498;18.206;2023-08-12T09:15:43;2.40;;;1.30;;
34102;SDS011;20381;54.498;18.206;2023-08-12T09:18:12;1.40;;;1.00;;
34102;SDS011;20381;54.498;18.206;2023-08-12T09:20:43;1.90;;;1.60;;
34102;SDS011;20381;54.498;18.206;2023-08-12T09:23:15;3.10;;;1.50;;
34102;SDS011;20381;54.498;18.206;2023-08-12T09:25:45;3.40;;;2.60;;
34102;SDS011;20381;54.498;18.206;2023-08-12T09:28:17;2.40;;;2.30;;
34102;SDS011;20381;54.498;18.206;2023-08-12T09:30:49;4.70;;;4.20;;
34102;SDS011;20381;54.498;18.206;2023-08-12T09:33:32;4.00;;;3.80;;
34102;SDS011;20381;54.498;18.206;2023-08-12T09:36:07;5.20;;;4.80;;
34102;SDS011;20381;54.498;18.206;2023-08-12T09:38:36;5.80;;;5.30;;
34102;SDS011;20381;54.498;18.206;2023-08-12T09:41:05;7.10;;;6.60;;
34102;SDS011;20381;54.498;18.206;2023-08-12T09:43:34;8.00;;;7.60;;
34102;SDS011;20381;54.498;18.206;2023-08-12T09:46:03;10.60;;;10.00;;
34102;SDS011;20381;54.498;18.206;2023-08-12T09:48:32;11.00;;;10.40;;
34102;SDS011;20381;54.498;18.206;2023-08-12T09:51:01;12.90;;;12.00;;
34102;SDS011;20381;54.498;18.206;2023-08-12T09:53:30;14.00;;;13.20;;
34102;SDS011;20381;54.498;18.206;2023-08-12T09:56:05;15.10;;;14.30;;
34102;SDS011;20381;54.498;18.206;2023-08-12T09:58:39;18.20;;;17.00;;
34102;SDS011;20381;54.498;18.206;2023-08-12T10:01:11;20.40;;;19.10;;
34102;SDS011;20381;54.498;18.206;2023-08-12T10:03:41;20.10;;;19.00;;
34102;SDS011;20381;54.498;18.206;2023-08-12T10:08:45;24.90;;;23.60;;
34102;SDS011;20381;54.498;18.206;2023-08-12T10:11:15;25.20;;;23.80;;
34102;SDS011;20381;54.498;18.206;2023-08-12T10:13:44;25.90;;;24.50;;
34102;SDS011;20381;54.498;18.206;2023-08-12T10:16:13;27.40;;;25.90;;
34102;SDS011;20381;54.498;18.206;2023-08-12T10:18:44;27.40;;;25.90;;
34102;SDS011;20381;54.498;18.206;2023-08-12T10:23:46;32.30;;;30.50;;
34102;SDS011;20381;54.498;18.206;2023-08-12T10:26:15;32.30;;;30.40;;
34102;SDS011;20381;54.498;18.206;2023-08-12T10:28:45;35.60;;;33.60;;
34102;SDS011;20381;54.498;18.206;2023-08-12T10:31:17;37.30;;;35.30;;
34102;SDS011;20381;54.498;18.206;2023-08-12T10:33:48;41.40;;;39.00;;
34102;SDS011;20381;54.498;18.206;2023-08-12T10:36:18;42.90;;;40.60;;
34102;SDS011;20381;54.498;18.206;2023-08-12T10:38:47;44.60;;;42.10;;
34102;SDS011;20381;54.498;18.206;2023-08-12T10:41:20;46.40;;;43.90;;
34102;SDS011;20381;54.498;18.206;2023-08-12T10:43:59;48.20;;;45.60;;
34102;SDS011;20381;54.498;18.206;2023-08-12T10:46:30;47.00;;;44.50;;
34102;SDS011;20381;54.498;18.206;2023-08-12T10:49:05;46.20;;;43.80;;
34102;SDS011;20381;54.498;18.206;2023-08-12T10:54:26;48.40;;;45.70;;
34102;SDS011;20381;54.498;18.206;2023-08-12T11:02:25;50.20;;;47.50;;
34102;SDS011;20381;54.498;18.206;2023-08-12T11:18:10;53.10;;;50.20;;
34102;SDS011;20381;54.498;18.206;2023-08-12T11:20:45;50.10;;;47.40;;
34102;SDS011;20381;54.498;18.206;2023-08-12T11:23:16;49.80;;;47.10;;
34102;SDS011;20381;54.498;18.206;2023-08-12T11:25:45;49.70;;;47.00;;
34102;SDS011;20381;54.498;18.206;2023-08-12T11:28:14;54.70;;;51.70;;
34102;SDS011;20381;54.498;18.206;2023-08-12T11:30:43;50.60;;;47.90;;
34102;SDS011;20381;54.498;18.206;2023-08-12T11:33:18;47.20;;;44.60;;
34102;SDS011;20381;54.498;18.206;2023-08-12T11:35:54;44.50;;;42.10;;
34102;SDS011;20381;54.498;18.206;2023-08-12T11:38:22;39.00;;;36.90;;
34102;SDS011;20381;54.498;18.206;2023-08-12T11:41:01;33.80;;;31.90;;
34102;SDS011;20381;54.498;18.206;2023-08-12T11:43:36;30.70;;;29.10;;
34102;SDS011;20381;54.498;18.206;2023-08-12T11:46:06;24.80;;;23.50;;
34102;SDS011;20381;54.498;18.206;2023-08-12T11:48:39;21.00;;;19.90;;
34102;SDS011;20381;54.498;18.206;2023-08-12T11:51:13;19.20;;;18.20;;
34102;SDS011;20381;54.498;18.206;2023-08-12T11:53:46;15.90;;;15.00;;
34102;SDS011;20381;54.498;18.206;2023-08-12T11:56:15;12.20;;;11.20;;
34102;SDS011;20381;54.498;18.206;2023-08-12T11:58:48;10.20;;;9.60;;
34102;SDS011;20381;54.498;18.206;2023-08-12T12:01:21;6.90;;;6.40;;
34102;SDS011;20381;54.498;18.206;2023-08-12T12:03:59;4.90;;;4.40;;
34102;SDS011;20381;54.498;18.206;2023-08-12T12:06:38;3.40;;;3.20;;
34102;SDS011;20381;54.498;18.206;2023-08-12T12:09:08;2.70;;;2.50;;
34102;SDS011;20381;54.498;18.206;2023-08-12T12:11:38;2.10;;;1.80;;
34102;SDS011;20381;54.498;18.206;2023-08-12T12:14:09;2.30;;;1.20;;
34102;SDS011;20381;54.498;18.206;2023-08-12T12:16:39;2.40;;;0.90;;
34102;SDS011;20381;54.498;18.206;2023-08-12T12:19:30;1.70;;;1.00;;
34102;SDS011;20381;54.498;18.206;2023-08-12T12:21:58;1.00;;;0.70;;
34102;SDS011;20381;54.498;18.206;2023-08-12T12:24:44;0.90;;;0.60;;
34102;SDS011;20381;54.498;18.206;2023-08-12T12:27:18;1.00;;;0.70;;
34102;SDS011;20381;54.498;18.206;2023-08-12T12:29:47;1.60;;;0.70;;
34102;SDS011;20381;54.498;18.206;2023-08-12T12:32:20;3.80;;;0.90;;
34102;SDS011;20381;54.498;18.206;2023-08-12T12:34:51;3.40;;;0.60;;
34102;SDS011;20381;54.498;18.206;2023-08-12T12:37:21;2.20;;;0.70;;
34102;SDS011;20381;54.498;18.206;2023-08-12T12:39:53;2.80;;;1.20;;
34102;SDS011;20381;54.498;18.206;2023-08-12T12:42:23;2.60;;;0.80;;
34102;SDS011;20381;54.498;18.206;2023-08-12T12:44:52;3.50;;;0.60;;
34102;SDS011;20381;54.498;18.206;2023-08-12T12:47:22;2.90;;;1.20;;
34102;SDS011;20381;54.498;18.206;2023-08-12T12:49:54;2.70;;;1.00;;
34102;SDS011;20381;54.498;18.206;2023-08-12T12:52:25;2.00;;;1.20;;
34102;SDS011;20381;54.498;18.206;2023-08-12T12:54:55;2.60;;;1.10;;
34102;SDS011;20381;54.498;18.206;2023-08-12T12:57:26;2.10;;;1.20;;
34102;SDS011;20381;54.498;18.206;2023-08-12T12:59:56;1.60;;;1.00;;
34102;SDS011;20381;54.498;18.206;2023-08-12T13:02:34;1.00;;;0.70;;
34102;SDS011;20381;54.498;18.206;2023-08-12T13:05:04;1.30;;;0.70;;
34102;SDS011;20381;54.498;18.206;2023-08-12T13:07:34;1.60;;;1.10;;
34102;SDS011;20381;54.498;18.206;2023-08-12T13:10:06;1.70;;;1.00;;
34102;SDS011;20381;54.498;18.206;2023-08-12T13:12:36;2.10;;;1.40;;
34102;SDS011;20381;54.498;18.206;2023-08-12T13:15:05;2.50;;;0.90;;
34102;SDS011;20381;54.498;18.206;2023-08-12T13:17:41;1.60;;;0.90;;
34102;SDS011;20381;54.498;18.206;2023-08-12T13:20:11;1.80;;;0.80;;
34102;SDS011;20381;54.498;18.206;2023-08-12T13:22:43;1.80;;;1.20;;
34102;SDS011;20381;54.498;18.206;2023-08-12T13:25:16;1.80;;;1.00;;
34102;SDS011;20381;54.498;18.206;2023-08-12T13:27:48;1.60;;;0.80;;
34102;SDS011;20381;54.498;18.206;2023-08-12T13:30:18;1.90;;;0.90;;
34102;SDS011;20381;54.498;18.206;2023-08-12T13:32:54;3.10;;;1.00;;
34102;SDS011;20381;54.498;18.206;2023-08-12T13:35:32;2.90;;;1.00;;
34102;SDS011;20381;54.498;18.206;2023-08-12T13:38:02;2.60;;;0.90;;
34102;SDS011;20381;54.498;18.206;2023-08-12T13:40:34;1.20;;;0.80;;
34102;SDS011;20381;54.498;18.206;2023-08-12T13:43:06;1.20;;;0.90;;
34102;SDS011;20381;54.498;18.206;2023-08-12T13:45:39;1.10;;;0.80;;
34102;SDS011;20381;54.498;18.206;2023-08-12T13:48:10;1.00;;;0.70;;
34102;SDS011;20381;54.498;18.206;2023-08-12T13:50:44;1.40;;;0.80;;
34102;SDS011;20381;54.498;18.206;2023-08-12T13:53:27;2.00;;;1.00;;
34102;SDS011;20381;54.498;18.206;2023-08-12T13:55:56;2.80;;;1.00;;
34102;SDS011;20381;54.498;18.206;2023-08-12T13:58:26;1.40;;;1.00;;
34102;SDS011;20381;54.498;18.206;2023-08-12T14:00:55;1.80;;;0.80;;
34102;SDS011;20381;54.498;18.206;2023-08-12T14:03:24;1.80;;;1.00;;
34102;SDS011;20381;54.498;18.206;2023-08-12T14:05:54;1.30;;;1.00;;
34102;SDS011;20381;54.498;18.206;2023-08-12T14:08:24;1.90;;;1.00;;
34102;SDS011;20381;54.498;18.206;2023-08-12T14:10:54;1.90;;;1.00;;
34102;SDS011;20381;54.498;18.206;2023-08-12T14:13:24;2.30;;;1.00;;
34102;SDS011;20381;54.498;18.206;2023-08-12T14:15:53;4.00;;;1.50;;
34102;SDS011;20381;54.498;18.206;2023-08-12T14:18:25;2.70;;;1.60;;
34102;SDS011;20381;54.498;18.206;2023-08-12T14:20:54;1.20;;;0.90;;
34102;SDS011;20381;54.498;18.206;2023-08-12T14:23:23;1.60;;;0.90;;
34102;SDS011;20381;54.498;18.206;2023-08-12T14:25:52;4.80;;;1.00;;
34102;SDS011;20381;54.498;18.206;2023-08-12T14:28:22;2.70;;;0.90;;
34102;SDS011;20381;54.498;18.206;2023-08-12T14:30:51;1.00;;;0.60;;
34102;SDS011;20381;54.498;18.206;2023-08-12T14:33:22;3.60;;;1.10;;
34102;SDS011;20381;54.498;18.206;2023-08-12T14:35:53;1.40;;;0.80;;
34102;SDS011;20381;54.498;18.206;2023-08-12T14:38:22;2.80;;;1.00;;
34102;SDS011;20381;54.498;18.206;2023-08-12T14:40:51;1.70;;;1.00;;
34102;SDS011;20381;54.498;18.206;2023-08-12T14:43:20;2.30;;;1.50;;
34102;SDS011;20381;54.498;18.206;2023-08-12T14:45:48;2.30;;;1.20;;
34102;SDS011;20381;54.498;18.206;2023-08-12T14:48:17;2.90;;;1.70;;
34102;SDS011;20381;54.498;18.206;2023-08-12T14:50:46;1.40;;;0.80;;
34102;SDS011;20381;54.498;18.206;2023-08-12T14:53:15;2.00;;;0.90;;
34102;SDS011;20381;54.498;18.206;2023-08-12T14:55:43;1.60;;;0.90;;
34102;SDS011;20381;54.498;18.206;2023-08-12T14:58:15;1.10;;;0.80;;
34102;SDS011;20381;54.498;18.206;2023-08-12T15:00:46;2.10;;;1.00;;
34102;SDS011;20381;54.498;18.206;2023-08-12T15:03:15;1.50;;;0.90;;
34102;SDS011;20381;54.498;18.206;2023-08-12T15:05:44;1.90;;;1.10;;
34102;SDS011;20381;54.498;18.206;2023-08-12T15:08:13;2.10;;;1.10;;
34102;SDS011;20381;54.498;18.206;2023-08-12T15:10:42;3.40;;;1.10;;
34102;SDS011;20381;54.498;18.206;2023-08-12T15:13:10;1.60;;;0.80;;
34102;SDS011;20381;54.498;18.206;2023-08-12T15:15:39;1.30;;;0.90;;
34102;SDS011;20381;54.498;18.206;2023-08-12T15:18:08;1.50;;;1.10;;
34102;SDS011;20381;54.498;18.206;2023-08-12T15:20:37;1.90;;;1.00;;
34102;SDS011;20381;54.498;18.206;2023-08-12T15:23:05;1.50;;;1.00;;
34102;SDS011;20381;54.498;18.206;2023-08-12T15:25:34;2.30;;;1.20;;
34102;SDS011;20381;54.498;18.206;2023-08-12T15:28:03;2.70;;;1.30;;
34102;SDS011;20381;54.498;18.206;2023-08-12T15:30:32;1.90;;;1.30;;
34102;SDS011;20381;54.498;18.206;2023-08-12T15:33:03;3.90;;;1.20;;
34102;SDS011;20381;54.498;18.206;2023-08-12T15:35:33;1.10;;;0.70;;